Route Details

Aircraft Information
Group: Boeing 767-300BDSF
Types: B763
Route Data
Distance: 1007nm
Duration: 2h 25m
Origin METAR: MPTO 160000Z 28004KT 9000 -RA FEW010 SCT015 BKN070 24/23 Q1011 NOSIG
Dest. METAR: KMIA 152353Z 00000KT 10SM FEW025 FEW110 BKN200 28/25 A2991 RMK AO2 SLP129 60081 T02780250 10333 20244 56009
Freight Data
(for Aug 16, 2022)
Load Factor:
75%
Manifested Cargo: 87,063lbs
Financial History
Total Freight: 726,768lbs
Average Load: 0lbs/flt
Fuel Used: 228,358lbs
Avg. Fuel Used: 0lbs/flt
Fuel Expense: $174,236
Avg. Fuel Expense: $0
Avg. Fuel Cost: $0/lbs
Total Gross Income: $1,432,977
Pilot Pay: $1,312
Total Expenses: $182,712
Total Revenue: $1,072,563
Average Revenue: $0

Capitol Logistics 727




MPTO
General Omar Torrijos International Airport
Panama City, PA
KMIA
Miami International Airport
Miami, US

Activity Log

Date Flight Route Aircraft Duration
07/15/2022 CPX727 EGET2A EGETA DCT ARNAL UL465 GCM UG448 IKBIX SNDBR2 B763 2h 35m
01/01/2020 CPX616 TASNO UL780 URSUS FLIPR6 B763 2h 47m
10/26/2019 CPX716 TASNO UL780 URSUS FLIPR6 B763 2h 52m
07/10/2019 CPX716 XOPLI/N0468F360 UG448 IKBIX Y183 PEAKY DVALL DVALL3 B763 2h 39m
06/15/2019 CPX716 TASNO UL780 URSUS FLIPR6 B763 2h 43m
05/12/2019 CPX716 TASNO UL780 URSUS FLIPR6 B763 2h 52m
04/29/2019 CPX716 TASNO UL780 URSUS FLIPR6 B763 2h 50m
01/16/2019 CPX716 TASNO UL780 URSUS FLIPR6 B763 2h 35m